sensor_id;sensor_type;location;lat;lon;timestamp;P1;durP1;ratioP1;P2;durP2;ratioP2
40162;SDS011;25881;47.462;19.304;2024-03-08T00:00:51;54.42;;;30.85;;
40162;SDS011;25881;47.462;19.304;2024-03-08T00:03:16;54.17;;;31.88;;
40162;SDS011;25881;47.462;19.304;2024-03-08T00:05:41;53.63;;;31.33;;
40162;SDS011;25881;47.462;19.304;2024-03-08T00:08:08;53.83;;;31.63;;
40162;SDS011;25881;47.462;19.304;2024-03-08T00:10:34;56.17;;;31.60;;
40162;SDS011;25881;47.462;19.304;2024-03-08T00:13:00;57.83;;;31.40;;
40162;SDS011;25881;47.462;19.304;2024-03-08T00:15:25;57.22;;;33.97;;
40162;SDS011;25881;47.462;19.304;2024-03-08T00:17:50;59.50;;;33.25;;
40162;SDS011;25881;47.462;19.304;2024-03-08T00:20:16;67.87;;;36.07;;
40162;SDS011;25881;47.462;19.304;2024-03-08T00:22:42;62.13;;;34.35;;
40162;SDS011;25881;47.462;19.304;2024-03-08T00:25:08;63.22;;;35.60;;
40162;SDS011;25881;47.462;19.304;2024-03-08T00:27:33;59.20;;;35.00;;
40162;SDS011;25881;47.462;19.304;2024-03-08T00:29:59;60.30;;;32.97;;
40162;SDS011;25881;47.462;19.304;2024-03-08T00:32:24;58.87;;;33.57;;
40162;SDS011;25881;47.462;19.304;2024-03-08T00:34:50;58.65;;;34.70;;
40162;SDS011;25881;47.462;19.304;2024-03-08T00:37:16;55.40;;;32.97;;
40162;SDS011;25881;47.462;19.304;2024-03-08T00:39:42;59.80;;;34.93;;
40162;SDS011;25881;47.462;19.304;2024-03-08T00:42:07;58.83;;;34.07;;
40162;SDS011;25881;47.462;19.304;2024-03-08T00:44:33;63.38;;;34.92;;
40162;SDS011;25881;47.462;19.304;2024-03-08T00:46:58;58.88;;;33.38;;
40162;SDS011;25881;47.462;19.304;2024-03-08T00:49:24;66.15;;;37.17;;
40162;SDS011;25881;47.462;19.304;2024-03-08T00:51:49;62.43;;;34.20;;
40162;SDS011;25881;47.462;19.304;2024-03-08T00:54:14;66.47;;;36.80;;
40162;SDS011;25881;47.462;19.304;2024-03-08T00:56:41;63.08;;;37.00;;
40162;SDS011;25881;47.462;19.304;2024-03-08T00:59:06;65.22;;;35.63;;
40162;SDS011;25881;47.462;19.304;2024-03-08T01:01:32;66.75;;;37.85;;
40162;SDS011;25881;47.462;19.304;2024-03-08T01:03:57;60.23;;;34.87;;
40162;SDS011;25881;47.462;19.304;2024-03-08T01:06:23;60.53;;;33.83;;
40162;SDS011;25881;47.462;19.304;2024-03-08T01:08:48;62.70;;;34.55;;
40162;SDS011;25881;47.462;19.304;2024-03-08T01:11:16;71.05;;;38.20;;
40162;SDS011;25881;47.462;19.304;2024-03-08T01:13:42;63.22;;;34.17;;
40162;SDS011;25881;47.462;19.304;2024-03-08T01:16:07;66.87;;;37.03;;
40162;SDS011;25881;47.462;19.304;2024-03-08T01:18:32;64.23;;;36.13;;
40162;SDS011;25881;47.462;19.304;2024-03-08T01:20:57;60.57;;;34.07;;
40162;SDS011;25881;47.462;19.304;2024-03-08T01:23:23;64.13;;;36.30;;
40162;SDS011;25881;47.462;19.304;2024-03-08T01:25:49;61.53;;;35.83;;
40162;SDS011;25881;47.462;19.304;2024-03-08T01:28:21;65.53;;;37.97;;
40162;SDS011;25881;47.462;19.304;2024-03-08T01:30:46;68.87;;;36.50;;
40162;SDS011;25881;47.462;19.304;2024-03-08T01:33:12;69.20;;;37.33;;
40162;SDS011;25881;47.462;19.304;2024-03-08T01:35:37;67.20;;;35.90;;
40162;SDS011;25881;47.462;19.304;2024-03-08T01:38:02;65.20;;;36.33;;
40162;SDS011;25881;47.462;19.304;2024-03-08T01:40:30;66.93;;;35.90;;
40162;SDS011;25881;47.462;19.304;2024-03-08T01:42:55;63.87;;;36.07;;
40162;SDS011;25881;47.462;19.304;2024-03-08T01:45:20;63.27;;;35.70;;
40162;SDS011;25881;47.462;19.304;2024-03-08T01:47:45;64.03;;;36.70;;
40162;SDS011;25881;47.462;19.304;2024-03-08T01:50:13;60.87;;;36.17;;
40162;SDS011;25881;47.462;19.304;2024-03-08T01:52:38;63.75;;;35.65;;
40162;SDS011;25881;47.462;19.304;2024-03-08T01:55:03;63.30;;;36.13;;
40162;SDS011;25881;47.462;19.304;2024-03-08T01:57:32;68.75;;;38.08;;
40162;SDS011;25881;47.462;19.304;2024-03-08T02:00:00;66.05;;;36.83;;
40162;SDS011;25881;47.462;19.304;2024-03-08T02:02:33;66.20;;;34.20;;
40162;SDS011;25881;47.462;19.304;2024-03-08T02:05:00;68.00;;;38.70;;
40162;SDS011;25881;47.462;19.304;2024-03-08T02:07:25;73.10;;;37.30;;
40162;SDS011;25881;47.462;19.304;2024-03-08T02:09:51;66.43;;;36.85;;
40162;SDS011;25881;47.462;19.304;2024-03-08T02:12:16;75.80;;;37.38;;
40162;SDS011;25881;47.462;19.304;2024-03-08T02:14:41;66.10;;;36.67;;
40162;SDS011;25881;47.462;19.304;2024-03-08T02:17:08;69.78;;;37.17;;
40162;SDS011;25881;47.462;19.304;2024-03-08T02:19:33;61.37;;;35.53;;
40162;SDS011;25881;47.462;19.304;2024-03-08T02:22:01;66.40;;;36.00;;
40162;SDS011;25881;47.462;19.304;2024-03-08T02:24:29;62.47;;;35.17;;
40162;SDS011;25881;47.462;19.304;2024-03-08T02:26:55;74.28;;;38.45;;
40162;SDS011;25881;47.462;19.304;2024-03-08T02:29:21;68.30;;;35.85;;
40162;SDS011;25881;47.462;19.304;2024-03-08T02:31:47;65.63;;;36.90;;
40162;SDS011;25881;47.462;19.304;2024-03-08T02:34:12;71.53;;;38.50;;
40162;SDS011;25881;47.462;19.304;2024-03-08T02:36:37;64.80;;;35.17;;
40162;SDS011;25881;47.462;19.304;2024-03-08T02:39:03;69.30;;;35.00;;
40162;SDS011;25881;47.462;19.304;2024-03-08T02:41:28;66.53;;;36.23;;
40162;SDS011;25881;47.462;19.304;2024-03-08T02:43:53;61.53;;;35.30;;
40162;SDS011;25881;47.462;19.304;2024-03-08T02:46:20;67.97;;;35.08;;
40162;SDS011;25881;47.462;19.304;2024-03-08T02:48:45;62.58;;;36.17;;
40162;SDS011;25881;47.462;19.304;2024-03-08T02:51:11;67.95;;;38.25;;
40162;SDS011;25881;47.462;19.304;2024-03-08T02:53:36;69.65;;;37.20;;
40162;SDS011;25881;47.462;19.304;2024-03-08T02:56:02;66.05;;;36.53;;
40162;SDS011;25881;47.462;19.304;2024-03-08T02:58:28;72.43;;;35.65;;
40162;SDS011;25881;47.462;19.304;2024-03-08T03:00:53;71.30;;;38.20;;
40162;SDS011;25881;47.462;19.304;2024-03-08T03:03:18;66.33;;;35.10;;
40162;SDS011;25881;47.462;19.304;2024-03-08T03:05:43;68.17;;;35.40;;
40162;SDS011;25881;47.462;19.304;2024-03-08T03:08:09;70.23;;;37.90;;
40162;SDS011;25881;47.462;19.304;2024-03-08T03:10:34;63.17;;;36.20;;
40162;SDS011;25881;47.462;19.304;2024-03-08T03:13:01;66.72;;;35.75;;
40162;SDS011;25881;47.462;19.304;2024-03-08T03:15:26;67.73;;;37.50;;
40162;SDS011;25881;47.462;19.304;2024-03-08T03:17:51;71.83;;;38.90;;
40162;SDS011;25881;47.462;19.304;2024-03-08T03:20:17;68.27;;;35.33;;
40162;SDS011;25881;47.462;19.304;2024-03-08T03:22:48;66.97;;;37.25;;
40162;SDS011;25881;47.462;19.304;2024-03-08T03:25:16;70.88;;;36.28;;
40162;SDS011;25881;47.462;19.304;2024-03-08T03:27:48;71.10;;;35.30;;
40162;SDS011;25881;47.462;19.304;2024-03-08T03:30:13;68.00;;;36.83;;
40162;SDS011;25881;47.462;19.304;2024-03-08T03:32:46;67.90;;;36.95;;
40162;SDS011;25881;47.462;19.304;2024-03-08T03:35:12;70.28;;;38.53;;
40162;SDS011;25881;47.462;19.304;2024-03-08T03:37:37;70.03;;;37.58;;
40162;SDS011;25881;47.462;19.304;2024-03-08T03:40:04;65.78;;;37.13;;
40162;SDS011;25881;47.462;19.304;2024-03-08T03:42:29;71.63;;;38.53;;
40162;SDS011;25881;47.462;19.304;2024-03-08T03:44:55;66.63;;;36.30;;
40162;SDS011;25881;47.462;19.304;2024-03-08T03:47:20;68.10;;;36.07;;
40162;SDS011;25881;47.462;19.304;2024-03-08T03:49:46;67.82;;;37.63;;
40162;SDS011;25881;47.462;19.304;2024-03-08T03:52:11;71.87;;;38.47;;
40162;SDS011;25881;47.462;19.304;2024-03-08T03:54:36;68.30;;;37.03;;
40162;SDS011;25881;47.462;19.304;2024-03-08T03:57:01;72.17;;;38.77;;
40162;SDS011;25881;47.462;19.304;2024-03-08T03:59:27;70.30;;;37.75;;
40162;SDS011;25881;47.462;19.304;2024-03-08T04:01:53;71.55;;;38.38;;
40162;SDS011;25881;47.462;19.304;2024-03-08T04:04:19;73.65;;;38.42;;
40162;SDS011;25881;47.462;19.304;2024-03-08T04:06:44;70.55;;;39.35;;
40162;SDS011;25881;47.462;19.304;2024-03-08T04:09:10;70.28;;;38.65;;
40162;SDS011;25881;47.462;19.304;2024-03-08T04:11:36;67.72;;;37.83;;
40162;SDS011;25881;47.462;19.304;2024-03-08T04:14:01;65.13;;;36.57;;
40162;SDS011;25881;47.462;19.304;2024-03-08T04:16:26;70.83;;;37.23;;
40162;SDS011;25881;47.462;19.304;2024-03-08T04:18:52;71.37;;;37.83;;
40162;SDS011;25881;47.462;19.304;2024-03-08T04:21:17;68.60;;;36.85;;
40162;SDS011;25881;47.462;19.304;2024-03-08T04:23:44;67.65;;;36.10;;
40162;SDS011;25881;47.462;19.304;2024-03-08T04:26:10;81.38;;;40.03;;
40162;SDS011;25881;47.462;19.304;2024-03-08T04:28:35;65.20;;;34.37;;
40162;SDS011;25881;47.462;19.304;2024-03-08T04:31:02;67.57;;;37.30;;
40162;SDS011;25881;47.462;19.304;2024-03-08T04:33:27;63.80;;;35.10;;
40162;SDS011;25881;47.462;19.304;2024-03-08T04:35:53;65.32;;;35.40;;
40162;SDS011;25881;47.462;19.304;2024-03-08T04:38:18;65.53;;;35.77;;
40162;SDS011;25881;47.462;19.304;2024-03-08T04:40:43;66.90;;;37.17;;
40162;SDS011;25881;47.462;19.304;2024-03-08T04:43:08;73.40;;;39.07;;
40162;SDS011;25881;47.462;19.304;2024-03-08T04:45:35;75.88;;;39.35;;
40162;SDS011;25881;47.462;19.304;2024-03-08T04:48:00;70.47;;;38.27;;
40162;SDS011;25881;47.462;19.304;2024-03-08T04:50:26;71.70;;;39.35;;
40162;SDS011;25881;47.462;19.304;2024-03-08T04:52:54;65.50;;;36.58;;
40162;SDS011;25881;47.462;19.304;2024-03-08T04:55:19;69.17;;;34.80;;
40162;SDS011;25881;47.462;19.304;2024-03-08T04:57:46;69.47;;;36.08;;
40162;SDS011;25881;47.462;19.304;2024-03-08T05:00:11;73.63;;;37.47;;
40162;SDS011;25881;47.462;19.304;2024-03-08T05:02:37;68.45;;;36.00;;
40162;SDS011;25881;47.462;19.304;2024-03-08T05:05:04;79.25;;;39.00;;
40162;SDS011;25881;47.462;19.304;2024-03-08T05:07:30;70.88;;;35.47;;
40162;SDS011;25881;47.462;19.304;2024-03-08T05:09:55;68.53;;;35.93;;
40162;SDS011;25881;47.462;19.304;2024-03-08T05:12:20;69.80;;;37.60;;
40162;SDS011;25881;47.462;19.304;2024-03-08T05:14:47;70.10;;;35.88;;
40162;SDS011;25881;47.462;19.304;2024-03-08T05:17:15;66.00;;;36.38;;
40162;SDS011;25881;47.462;19.304;2024-03-08T05:19:41;74.30;;;37.05;;
40162;SDS011;25881;47.462;19.304;2024-03-08T05:22:07;62.30;;;35.03;;
40162;SDS011;25881;47.462;19.304;2024-03-08T05:24:32;68.03;;;34.93;;
40162;SDS011;25881;47.462;19.304;2024-03-08T05:26:58;61.03;;;34.28;;
40162;SDS011;25881;47.462;19.304;2024-03-08T05:29:25;68.25;;;36.50;;
40162;SDS011;25881;47.462;19.304;2024-03-08T05:31:51;69.03;;;37.95;;
40162;SDS011;25881;47.462;19.304;2024-03-08T05:36:47;65.00;;;35.33;;
40162;SDS011;25881;47.462;19.304;2024-03-08T05:39:14;66.18;;;35.78;;
40162;SDS011;25881;47.462;19.304;2024-03-08T05:41:40;65.22;;;33.47;;
40162;SDS011;25881;47.462;19.304;2024-03-08T05:44:05;63.28;;;36.00;;
40162;SDS011;25881;47.462;19.304;2024-03-08T05:46:30;64.90;;;36.92;;
40162;SDS011;25881;47.462;19.304;2024-03-08T05:48:55;61.57;;;35.57;;
40162;SDS011;25881;47.462;19.304;2024-03-08T05:51:23;73.45;;;38.65;;
40162;SDS011;25881;47.462;19.304;2024-03-08T05:53:48;67.87;;;36.87;;
40162;SDS011;25881;47.462;19.304;2024-03-08T05:56:14;69.53;;;37.97;;
40162;SDS011;25881;47.462;19.304;2024-03-08T05:58:39;67.17;;;35.67;;
40162;SDS011;25881;47.462;19.304;2024-03-08T06:01:04;71.30;;;38.53;;
40162;SDS011;25881;47.462;19.304;2024-03-08T06:05:58;67.85;;;36.97;;
40162;SDS011;25881;47.462;19.304;2024-03-08T06:08:23;69.20;;;37.53;;
40162;SDS011;25881;47.462;19.304;2024-03-08T06:10:54;77.25;;;40.58;;
40162;SDS011;25881;47.462;19.304;2024-03-08T06:13:19;74.43;;;39.27;;
40162;SDS011;25881;47.462;19.304;2024-03-08T06:15:45;72.10;;;38.50;;
40162;SDS011;25881;47.462;19.304;2024-03-08T06:18:10;66.70;;;35.08;;
40162;SDS011;25881;47.462;19.304;2024-03-08T06:20:36;67.80;;;37.75;;
40162;SDS011;25881;47.462;19.304;2024-03-08T06:23:02;69.97;;;37.83;;
40162;SDS011;25881;47.462;19.304;2024-03-08T06:25:27;71.13;;;38.00;;
40162;SDS011;25881;47.462;19.304;2024-03-08T06:27:52;73.13;;;37.30;;
40162;SDS011;25881;47.462;19.304;2024-03-08T06:30:18;66.35;;;36.78;;
40162;SDS011;25881;47.462;19.304;2024-03-08T06:32:43;68.47;;;37.20;;
40162;SDS011;25881;47.462;19.304;2024-03-08T06:35:08;70.63;;;36.27;;
40162;SDS011;25881;47.462;19.304;2024-03-08T06:37:35;68.65;;;36.92;;
40162;SDS011;25881;47.462;19.304;2024-03-08T06:40:00;71.72;;;38.25;;
40162;SDS011;25881;47.462;19.304;2024-03-08T06:42:29;71.43;;;37.97;;
40162;SDS011;25881;47.462;19.304;2024-03-08T06:44:58;74.47;;;38.03;;
40162;SDS011;25881;47.462;19.304;2024-03-08T06:47:29;73.18;;;36.67;;
40162;SDS011;25881;47.462;19.304;2024-03-08T06:49:54;69.50;;;36.97;;
40162;SDS011;25881;47.462;19.304;2024-03-08T06:52:19;75.07;;;37.13;;
40162;SDS011;25881;47.462;19.304;2024-03-08T06:54:45;78.73;;;39.00;;
40162;SDS011;25881;47.462;19.304;2024-03-08T06:57:10;75.20;;;37.40;;
40162;SDS011;25881;47.462;19.304;2024-03-08T06:59:35;67.10;;;35.73;;
40162;SDS011;25881;47.462;19.304;2024-03-08T07:02:01;75.20;;;37.92;;
40162;SDS011;25881;47.462;19.304;2024-03-08T07:04:26;70.35;;;38.35;;
40162;SDS011;25881;47.462;19.304;2024-03-08T07:06:54;76.43;;;37.17;;
40162;SDS011;25881;47.462;19.304;2024-03-08T07:09:20;70.07;;;37.47;;
40162;SDS011;25881;47.462;19.304;2024-03-08T07:11:45;77.93;;;38.42;;
40162;SDS011;25881;47.462;19.304;2024-03-08T07:14:11;74.43;;;38.90;;
40162;SDS011;25881;47.462;19.304;2024-03-08T07:16:36;80.83;;;38.77;;
40162;SDS011;25881;47.462;19.304;2024-03-08T07:19:02;85.80;;;39.53;;
40162;SDS011;25881;47.462;19.304;2024-03-08T07:21:28;74.78;;;37.47;;
40162;SDS011;25881;47.462;19.304;2024-03-08T07:23:54;80.05;;;41.00;;
40162;SDS011;25881;47.462;19.304;2024-03-08T07:26:34;79.55;;;39.72;;
40162;SDS011;25881;47.462;19.304;2024-03-08T07:28:59;82.50;;;39.37;;
40162;SDS011;25881;47.462;19.304;2024-03-08T07:31:25;84.55;;;40.67;;
40162;SDS011;25881;47.462;19.304;2024-03-08T07:33:50;78.93;;;39.87;;
40162;SDS011;25881;47.462;19.304;2024-03-08T07:36:16;84.40;;;41.10;;
40162;SDS011;25881;47.462;19.304;2024-03-08T07:38:41;85.25;;;43.28;;
40162;SDS011;25881;47.462;19.304;2024-03-08T07:41:06;87.30;;;42.23;;
40162;SDS011;25881;47.462;19.304;2024-03-08T07:43:31;97.70;;;43.03;;
40162;SDS011;25881;47.462;19.304;2024-03-08T07:45:57;86.43;;;43.85;;
40162;SDS011;25881;47.462;19.304;2024-03-08T07:48:22;86.63;;;40.10;;
40162;SDS011;25881;47.462;19.304;2024-03-08T07:50:48;89.72;;;41.78;;
40162;SDS011;25881;47.462;19.304;2024-03-08T07:53:15;92.32;;;42.42;;
40162;SDS011;25881;47.462;19.304;2024-03-08T07:55:40;91.72;;;41.95;;
40162;SDS011;25881;47.462;19.304;2024-03-08T07:58:07;89.97;;;39.63;;
40162;SDS011;25881;47.462;19.304;2024-03-08T08:00:34;90.45;;;43.63;;
40162;SDS011;25881;47.462;19.304;2024-03-08T08:03:01;95.47;;;43.65;;
40162;SDS011;25881;47.462;19.304;2024-03-08T08:05:26;90.13;;;42.73;;
40162;SDS011;25881;47.462;19.304;2024-03-08T08:07:52;90.10;;;40.60;;
40162;SDS011;25881;47.462;19.304;2024-03-08T08:10:18;87.32;;;40.25;;
40162;SDS011;25881;47.462;19.304;2024-03-08T08:12:46;87.03;;;42.17;;
40162;SDS011;25881;47.462;19.304;2024-03-08T08:15:12;107.13;;;46.67;;
40162;SDS011;25881;47.462;19.304;2024-03-08T08:17:38;93.18;;;42.88;;
40162;SDS011;25881;47.462;19.304;2024-03-08T08:20:03;106.15;;;46.53;;
40162;SDS011;25881;47.462;19.304;2024-03-08T08:22:30;101.13;;;45.38;;
40162;SDS011;25881;47.462;19.304;2024-03-08T08:24:55;99.75;;;46.85;;
40162;SDS011;25881;47.462;19.304;2024-03-08T08:27:21;95.30;;;40.43;;
40162;SDS011;25881;47.462;19.304;2024-03-08T08:29:46;107.77;;;47.13;;
40162;SDS011;25881;47.462;19.304;2024-03-08T08:32:11;104.53;;;46.97;;
40162;SDS011;25881;47.462;19.304;2024-03-08T08:34:36;95.73;;;43.70;;
40162;SDS011;25881;47.462;19.304;2024-03-08T08:37:01;98.33;;;42.83;;
40162;SDS011;25881;47.462;19.304;2024-03-08T08:39:27;101.00;;;43.60;;
40162;SDS011;25881;47.462;19.304;2024-03-08T08:41:52;100.82;;;43.55;;
40162;SDS011;25881;47.462;19.304;2024-03-08T08:44:18;94.13;;;43.67;;
40162;SDS011;25881;47.462;19.304;2024-03-08T08:46:43;104.17;;;45.10;;
40162;SDS011;25881;47.462;19.304;2024-03-08T08:49:08;91.07;;;41.97;;
40162;SDS011;25881;47.462;19.304;2024-03-08T08:51:36;99.18;;;43.03;;
40162;SDS011;25881;47.462;19.304;2024-03-08T08:54:01;93.80;;;44.58;;
40162;SDS011;25881;47.462;19.304;2024-03-08T08:56:26;105.43;;;42.50;;
40162;SDS011;25881;47.462;19.304;2024-03-08T08:58:53;94.20;;;43.50;;
40162;SDS011;25881;47.462;19.304;2024-03-08T09:01:19;91.13;;;42.67;;
40162;SDS011;25881;47.462;19.304;2024-03-08T09:03:44;88.13;;;42.63;;
40162;SDS011;25881;47.462;19.304;2024-03-08T09:06:11;100.32;;;46.25;;
40162;SDS011;25881;47.462;19.304;2024-03-08T09:08:37;89.75;;;42.78;;
40162;SDS011;25881;47.462;19.304;2024-03-08T09:11:03;78.97;;;39.42;;
40162;SDS011;25881;47.462;19.304;2024-03-08T09:13:28;88.07;;;42.70;;
40162;SDS011;25881;47.462;19.304;2024-03-08T09:15:53;99.23;;;44.70;;
40162;SDS011;25881;47.462;19.304;2024-03-08T09:18:18;89.90;;;42.53;;
40162;SDS011;25881;47.462;19.304;2024-03-08T09:20:44;91.38;;;43.20;;
40162;SDS011;25881;47.462;19.304;2024-03-08T09:23:09;98.50;;;44.17;;
40162;SDS011;25881;47.462;19.304;2024-03-08T09:25:35;88.70;;;43.20;;
40162;SDS011;25881;47.462;19.304;2024-03-08T09:28:00;149.23;;;49.40;;
40162;SDS011;25881;47.462;19.304;2024-03-08T09:30:25;99.87;;;41.90;;
40162;SDS011;25881;47.462;19.304;2024-03-08T09:32:50;92.27;;;43.83;;
40162;SDS011;25881;47.462;19.304;2024-03-08T09:35:16;89.38;;;41.97;;
40162;SDS011;25881;47.462;19.304;2024-03-08T09:37:41;92.85;;;42.33;;
40162;SDS011;25881;47.462;19.304;2024-03-08T09:40:07;87.90;;;42.13;;
40162;SDS011;25881;47.462;19.304;2024-03-08T09:42:37;81.35;;;40.72;;
40162;SDS011;25881;47.462;19.304;2024-03-08T09:45:04;72.00;;;38.65;;
40162;SDS011;25881;47.462;19.304;2024-03-08T09:47:32;80.03;;;41.28;;
40162;SDS011;25881;47.462;19.304;2024-03-08T09:49:59;78.93;;;39.05;;
40162;SDS011;25881;47.462;19.304;2024-03-08T09:52:24;77.78;;;38.75;;
40162;SDS011;25881;47.462;19.304;2024-03-08T09:54:50;81.80;;;39.47;;
40162;SDS011;25881;47.462;19.304;2024-03-08T09:57:15;93.23;;;43.00;;
40162;SDS011;25881;47.462;19.304;2024-03-08T09:59:41;88.32;;;41.78;;
40162;SDS011;25881;47.462;19.304;2024-03-08T10:02:13;96.07;;;44.65;;
40162;SDS011;25881;47.462;19.304;2024-03-08T10:04:39;94.40;;;41.58;;
40162;SDS011;25881;47.462;19.304;2024-03-08T10:07:07;91.13;;;44.00;;
40162;SDS011;25881;47.462;19.304;2024-03-08T10:09:32;78.83;;;40.07;;
40162;SDS011;25881;47.462;19.304;2024-03-08T10:11:57;91.07;;;43.07;;
40162;SDS011;25881;47.462;19.304;2024-03-08T10:14:24;85.28;;;41.00;;
40162;SDS011;25881;47.462;19.304;2024-03-08T10:16:49;94.40;;;45.25;;
40162;SDS011;25881;47.462;19.304;2024-03-08T10:19:14;88.00;;;42.97;;
40162;SDS011;25881;47.462;19.304;2024-03-08T10:21:50;84.47;;;43.28;;
40162;SDS011;25881;47.462;19.304;2024-03-08T10:24:19;85.13;;;42.45;;
40162;SDS011;25881;47.462;19.304;2024-03-08T10:26:44;76.60;;;38.72;;
40162;SDS011;25881;47.462;19.304;2024-03-08T10:29:10;92.15;;;43.40;;
40162;SDS011;25881;47.462;19.304;2024-03-08T10:31:35;87.10;;;41.72;;
40162;SDS011;25881;47.462;19.304;2024-03-08T10:34:01;77.35;;;40.80;;
40162;SDS011;25881;47.462;19.304;2024-03-08T10:36:26;88.10;;;41.42;;
40162;SDS011;25881;47.462;19.304;2024-03-08T10:38:53;81.72;;;40.85;;
40162;SDS011;25881;47.462;19.304;2024-03-08T10:41:18;81.65;;;40.50;;
40162;SDS011;25881;47.462;19.304;2024-03-08T10:46:15;74.90;;;38.43;;
40162;SDS011;25881;47.462;19.304;2024-03-08T10:48:44;80.15;;;40.33;;
40162;SDS011;25881;47.462;19.304;2024-03-08T10:51:11;75.15;;;40.28;;
40162;SDS011;25881;47.462;19.304;2024-03-08T10:53:36;67.55;;;38.20;;
40162;SDS011;25881;47.462;19.304;2024-03-08T10:56:04;70.47;;;38.75;;
40162;SDS011;25881;47.462;19.304;2024-03-08T10:58:30;72.63;;;40.13;;
40162;SDS011;25881;47.462;19.304;2024-03-08T11:00:55;79.20;;;40.90;;
40162;SDS011;25881;47.462;19.304;2024-03-08T11:06:05;75.32;;;41.58;;
40162;SDS011;25881;47.462;19.304;2024-03-08T11:08:31;81.82;;;41.60;;
40162;SDS011;25881;47.462;19.304;2024-03-08T11:10:56;80.15;;;43.28;;
40162;SDS011;25881;47.462;19.304;2024-03-08T11:13:37;82.00;;;42.37;;
40162;SDS011;25881;47.462;19.304;2024-03-08T11:16:37;80.70;;;42.00;;
40162;SDS011;25881;47.462;19.304;2024-03-08T11:19:22;80.50;;;41.60;;
40162;SDS011;25881;47.462;19.304;2024-03-08T11:21:56;79.60;;;42.55;;
40162;SDS011;25881;47.462;19.304;2024-03-08T11:24:22;70.00;;;39.90;;
40162;SDS011;25881;47.462;19.304;2024-03-08T11:26:47;69.73;;;38.70;;
40162;SDS011;25881;47.462;19.304;2024-03-08T11:32:03;70.35;;;38.70;;
40162;SDS011;25881;47.462;19.304;2024-03-08T11:34:28;78.68;;;41.80;;
40162;SDS011;25881;47.462;19.304;2024-03-08T11:36:54;72.18;;;41.70;;
40162;SDS011;25881;47.462;19.304;2024-03-08T11:39:21;61.03;;;38.03;;
40162;SDS011;25881;47.462;19.304;2024-03-08T11:41:47;57.33;;;36.40;;
40162;SDS011;25881;47.462;19.304;2024-03-08T11:44:13;64.80;;;40.17;;
40162;SDS011;25881;47.462;19.304;2024-03-08T11:46:41;62.72;;;35.20;;
40162;SDS011;25881;47.462;19.304;2024-03-08T11:49:11;61.88;;;37.65;;
40162;SDS011;25881;47.462;19.304;2024-03-08T11:51:36;62.78;;;37.55;;
40162;SDS011;25881;47.462;19.304;2024-03-08T11:54:02;54.60;;;33.77;;
40162;SDS011;25881;47.462;19.304;2024-03-08T11:56:28;51.28;;;33.30;;
40162;SDS011;25881;47.462;19.304;2024-03-08T11:58:54;54.60;;;34.42;;
40162;SDS011;25881;47.462;19.304;2024-03-08T12:01:23;57.42;;;35.22;;
40162;SDS011;25881;47.462;19.304;2024-03-08T12:03:54;54.45;;;32.25;;
40162;SDS011;25881;47.462;19.304;2024-03-08T12:06:20;49.42;;;32.05;;
40162;SDS011;25881;47.462;19.304;2024-03-08T12:08:46;51.80;;;33.40;;
40162;SDS011;25881;47.462;19.304;2024-03-08T12:11:14;50.45;;;32.10;;
40162;SDS011;25881;47.462;19.304;2024-03-08T12:13:39;50.63;;;32.22;;
40162;SDS011;25881;47.462;19.304;2024-03-08T12:16:05;52.45;;;33.72;;
40162;SDS011;25881;47.462;19.304;2024-03-08T12:18:33;56.03;;;34.38;;
40162;SDS011;25881;47.462;19.304;2024-03-08T12:21:09;58.45;;;35.15;;
40162;SDS011;25881;47.462;19.304;2024-03-08T12:23:35;64.65;;;36.08;;
40162;SDS011;25881;47.462;19.304;2024-03-08T12:28:45;62.08;;;37.78;;
40162;SDS011;25881;47.462;19.304;2024-03-08T12:31:13;64.90;;;37.40;;
40162;SDS011;25881;47.462;19.304;2024-03-08T12:33:51;65.80;;;37.67;;
40162;SDS011;25881;47.462;19.304;2024-03-08T12:36:17;62.05;;;36.75;;
40162;SDS011;25881;47.462;19.304;2024-03-08T12:38:48;62.00;;;37.85;;
40162;SDS011;25881;47.462;19.304;2024-03-08T12:41:17;68.75;;;37.17;;
40162;SDS011;25881;47.462;19.304;2024-03-08T12:43:43;62.63;;;37.80;;
40162;SDS011;25881;47.462;19.304;2024-03-08T12:46:15;67.13;;;39.33;;
40162;SDS011;25881;47.462;19.304;2024-03-08T12:48:40;64.05;;;36.58;;
40162;SDS011;25881;47.462;19.304;2024-03-08T12:51:06;61.83;;;36.13;;
40162;SDS011;25881;47.462;19.304;2024-03-08T12:53:32;66.35;;;38.13;;
40162;SDS011;25881;47.462;19.304;2024-03-08T12:55:57;62.90;;;36.70;;
40162;SDS011;25881;47.462;19.304;2024-03-08T12:58:22;69.32;;;40.40;;
40162;SDS011;25881;47.462;19.304;2024-03-08T13:00:48;71.30;;;39.57;;
40162;SDS011;25881;47.462;19.304;2024-03-08T13:03:13;66.47;;;37.73;;
40162;SDS011;25881;47.462;19.304;2024-03-08T13:05:38;67.40;;;37.90;;
40162;SDS011;25881;47.462;19.304;2024-03-08T13:08:07;63.70;;;36.63;;
40162;SDS011;25881;47.462;19.304;2024-03-08T13:10:37;67.03;;;38.50;;
40162;SDS011;25881;47.462;19.304;2024-03-08T13:13:03;65.25;;;37.40;;
40162;SDS011;25881;47.462;19.304;2024-03-08T13:15:29;57.83;;;35.75;;
40162;SDS011;25881;47.462;19.304;2024-03-08T13:17:55;56.20;;;34.13;;
40162;SDS011;25881;47.462;19.304;2024-03-08T13:20:22;63.47;;;37.17;;
40162;SDS011;25881;47.462;19.304;2024-03-08T13:22:48;68.40;;;36.35;;
40162;SDS011;25881;47.462;19.304;2024-03-08T13:25:13;66.60;;;35.88;;
40162;SDS011;25881;47.462;19.304;2024-03-08T13:27:41;65.07;;;38.70;;
40162;SDS011;25881;47.462;19.304;2024-03-08T13:30:10;65.32;;;37.90;;
40162;SDS011;25881;47.462;19.304;2024-03-08T13:32:39;62.90;;;36.10;;
40162;SDS011;25881;47.462;19.304;2024-03-08T13:35:04;61.80;;;36.47;;
40162;SDS011;25881;47.462;19.304;2024-03-08T13:37:37;65.28;;;37.88;;
40162;SDS011;25881;47.462;19.304;2024-03-08T13:40:02;55.17;;;34.10;;
40162;SDS011;25881;47.462;19.304;2024-03-08T13:42:30;58.03;;;33.42;;
40162;SDS011;25881;47.462;19.304;2024-03-08T13:44:55;60.97;;;36.07;;
40162;SDS011;25881;47.462;19.304;2024-03-08T13:47:21;59.05;;;34.97;;
40162;SDS011;25881;47.462;19.304;2024-03-08T13:49:46;55.53;;;33.50;;
40162;SDS011;25881;47.462;19.304;2024-03-08T13:52:11;58.80;;;34.30;;
40162;SDS011;25881;47.462;19.304;2024-03-08T13:54:41;60.25;;;34.13;;
40162;SDS011;25881;47.462;19.304;2024-03-08T13:57:06;56.60;;;33.45;;
40162;SDS011;25881;47.462;19.304;2024-03-08T13:59:32;59.67;;;34.40;;
40162;SDS011;25881;47.462;19.304;2024-03-08T14:01:58;61.90;;;35.03;;
40162;SDS011;25881;47.462;19.304;2024-03-08T14:04:24;61.33;;;35.08;;
40162;SDS011;25881;47.462;19.304;2024-03-08T14:06:51;64.03;;;37.85;;
40162;SDS011;25881;47.462;19.304;2024-03-08T14:09:21;65.50;;;36.80;;
40162;SDS011;25881;47.462;19.304;2024-03-08T14:11:49;56.33;;;34.05;;
40162;SDS011;25881;47.462;19.304;2024-03-08T14:14:14;57.30;;;32.73;;
40162;SDS011;25881;47.462;19.304;2024-03-08T14:16:40;55.93;;;31.80;;
40162;SDS011;25881;47.462;19.304;2024-03-08T14:19:05;52.95;;;29.73;;